sensor_id;sensor_type;location;lat;lon;timestamp;P1;durP1;ratioP1;P2;durP2;ratioP2
15202;SDS011;7702;51.046;5.184;2024-03-08T00:00:07;26.10;;;18.47;;
15202;SDS011;7702;51.046;5.184;2024-03-08T00:02:40;24.67;;;16.87;;
15202;SDS011;7702;51.046;5.184;2024-03-08T00:05:09;26.90;;;17.67;;
15202;SDS011;7702;51.046;5.184;2024-03-08T00:07:35;28.07;;;17.67;;
15202;SDS011;7702;51.046;5.184;2024-03-08T00:10:04;28.70;;;17.60;;
15202;SDS011;7702;51.046;5.184;2024-03-08T00:12:38;29.07;;;17.03;;
15202;SDS011;7702;51.046;5.184;2024-03-08T00:15:11;22.17;;;15.97;;
15202;SDS011;7702;51.046;5.184;2024-03-08T00:17:42;30.67;;;17.83;;
15202;SDS011;7702;51.046;5.184;2024-03-08T00:20:08;25.30;;;16.57;;
15202;SDS011;7702;51.046;5.184;2024-03-08T00:22:35;24.80;;;17.07;;
15202;SDS011;7702;51.046;5.184;2024-03-08T00:25:01;27.53;;;17.63;;
15202;SDS011;7702;51.046;5.184;2024-03-08T00:27:34;27.37;;;17.53;;
15202;SDS011;7702;51.046;5.184;2024-03-08T00:30:00;24.00;;;17.10;;
15202;SDS011;7702;51.046;5.184;2024-03-08T00:32:26;27.37;;;17.73;;
15202;SDS011;7702;51.046;5.184;2024-03-08T00:34:56;25.70;;;17.50;;
15202;SDS011;7702;51.046;5.184;2024-03-08T00:37:22;29.63;;;17.90;;
15202;SDS011;7702;51.046;5.184;2024-03-08T00:39:49;21.13;;;16.90;;
15202;SDS011;7702;51.046;5.184;2024-03-08T00:42:15;21.60;;;17.40;;
15202;SDS011;7702;51.046;5.184;2024-03-08T00:44:41;24.13;;;17.20;;
15202;SDS011;7702;51.046;5.184;2024-03-08T00:47:07;24.17;;;17.13;;
15202;SDS011;7702;51.046;5.184;2024-03-08T00:49:33;24.97;;;17.63;;
15202;SDS011;7702;51.046;5.184;2024-03-08T00:51:59;25.37;;;18.40;;
15202;SDS011;7702;51.046;5.184;2024-03-08T00:54:25;24.27;;;18.07;;
15202;SDS011;7702;51.046;5.184;2024-03-08T00:56:51;23.13;;;17.23;;
15202;SDS011;7702;51.046;5.184;2024-03-08T00:59:17;24.30;;;17.60;;
15202;SDS011;7702;51.046;5.184;2024-03-08T01:01:43;25.17;;;18.30;;
15202;SDS011;7702;51.046;5.184;2024-03-08T01:04:09;25.03;;;18.63;;
15202;SDS011;7702;51.046;5.184;2024-03-08T01:06:35;22.63;;;17.30;;
15202;SDS011;7702;51.046;5.184;2024-03-08T01:09:01;27.33;;;18.63;;
15202;SDS011;7702;51.046;5.184;2024-03-08T01:11:26;21.93;;;17.80;;
15202;SDS011;7702;51.046;5.184;2024-03-08T01:13:53;27.70;;;19.27;;
15202;SDS011;7702;51.046;5.184;2024-03-08T01:16:19;24.90;;;17.70;;
15202;SDS011;7702;51.046;5.184;2024-03-08T01:18:47;22.67;;;18.13;;
15202;SDS011;7702;51.046;5.184;2024-03-08T01:21:13;21.23;;;18.43;;
15202;SDS011;7702;51.046;5.184;2024-03-08T01:23:39;23.70;;;17.43;;
15202;SDS011;7702;51.046;5.184;2024-03-08T01:26:04;22.33;;;18.10;;
15202;SDS011;7702;51.046;5.184;2024-03-08T01:28:31;25.97;;;18.17;;
15202;SDS011;7702;51.046;5.184;2024-03-08T01:30:59;21.70;;;18.33;;
15202;SDS011;7702;51.046;5.184;2024-03-08T01:33:25;22.70;;;18.10;;
15202;SDS011;7702;51.046;5.184;2024-03-08T01:35:52;24.83;;;18.27;;
15202;SDS011;7702;51.046;5.184;2024-03-08T01:38:21;24.87;;;18.50;;
15202;SDS011;7702;51.046;5.184;2024-03-08T01:40:47;20.87;;;17.60;;
15202;SDS011;7702;51.046;5.184;2024-03-08T01:43:25;22.13;;;17.43;;
15202;SDS011;7702;51.046;5.184;2024-03-08T01:45:53;22.63;;;18.07;;
15202;SDS011;7702;51.046;5.184;2024-03-08T01:48:27;24.57;;;18.77;;
15202;SDS011;7702;51.046;5.184;2024-03-08T01:50:54;24.37;;;18.30;;
15202;SDS011;7702;51.046;5.184;2024-03-08T01:53:24;24.20;;;18.00;;
15202;SDS011;7702;51.046;5.184;2024-03-08T01:55:52;23.53;;;18.67;;
15202;SDS011;7702;51.046;5.184;2024-03-08T01:58:21;22.47;;;18.00;;
15202;SDS011;7702;51.046;5.184;2024-03-08T02:00:48;23.27;;;18.93;;
15202;SDS011;7702;51.046;5.184;2024-03-08T02:03:15;22.67;;;17.37;;
15202;SDS011;7702;51.046;5.184;2024-03-08T02:05:41;26.13;;;18.83;;
15202;SDS011;7702;51.046;5.184;2024-03-08T02:08:07;24.73;;;17.83;;
15202;SDS011;7702;51.046;5.184;2024-03-08T02:10:37;23.47;;;18.33;;
15202;SDS011;7702;51.046;5.184;2024-03-08T02:13:04;23.33;;;18.70;;
15202;SDS011;7702;51.046;5.184;2024-03-08T02:18:17;21.50;;;18.40;;
15202;SDS011;7702;51.046;5.184;2024-03-08T02:20:44;28.07;;;18.97;;
15202;SDS011;7702;51.046;5.184;2024-03-08T02:23:14;23.23;;;18.40;;
15202;SDS011;7702;51.046;5.184;2024-03-08T02:25:40;24.37;;;18.60;;
15202;SDS011;7702;51.046;5.184;2024-03-08T02:28:08;24.63;;;18.77;;
15202;SDS011;7702;51.046;5.184;2024-03-08T02:30:37;26.73;;;19.47;;
15202;SDS011;7702;51.046;5.184;2024-03-08T02:33:04;23.87;;;18.03;;
15202;SDS011;7702;51.046;5.184;2024-03-08T02:35:30;24.50;;;18.10;;
15202;SDS011;7702;51.046;5.184;2024-03-08T02:37:57;27.47;;;19.17;;
15202;SDS011;7702;51.046;5.184;2024-03-08T02:40:23;23.77;;;18.40;;
15202;SDS011;7702;51.046;5.184;2024-03-08T02:42:49;29.03;;;18.67;;
15202;SDS011;7702;51.046;5.184;2024-03-08T02:45:14;24.50;;;18.57;;
15202;SDS011;7702;51.046;5.184;2024-03-08T02:47:42;24.90;;;17.90;;
15202;SDS011;7702;51.046;5.184;2024-03-08T02:50:08;27.17;;;18.90;;
15202;SDS011;7702;51.046;5.184;2024-03-08T02:52:34;25.83;;;18.23;;
15202;SDS011;7702;51.046;5.184;2024-03-08T02:55:00;23.50;;;18.13;;
15202;SDS011;7702;51.046;5.184;2024-03-08T02:57:31;23.47;;;17.60;;
15202;SDS011;7702;51.046;5.184;2024-03-08T02:59:57;25.60;;;19.30;;
15202;SDS011;7702;51.046;5.184;2024-03-08T03:02:25;23.50;;;18.13;;
15202;SDS011;7702;51.046;5.184;2024-03-08T03:04:51;25.90;;;19.60;;
15202;SDS011;7702;51.046;5.184;2024-03-08T03:07:17;26.60;;;19.10;;
15202;SDS011;7702;51.046;5.184;2024-03-08T03:09:44;25.27;;;18.60;;
15202;SDS011;7702;51.046;5.184;2024-03-08T03:12:10;25.37;;;18.07;;
15202;SDS011;7702;51.046;5.184;2024-03-08T03:14:36;24.00;;;19.13;;
15202;SDS011;7702;51.046;5.184;2024-03-08T03:17:04;25.80;;;18.67;;
15202;SDS011;7702;51.046;5.184;2024-03-08T03:19:30;27.83;;;18.90;;
15202;SDS011;7702;51.046;5.184;2024-03-08T03:21:56;22.33;;;17.70;;
15202;SDS011;7702;51.046;5.184;2024-03-08T03:24:22;27.07;;;18.57;;
15202;SDS011;7702;51.046;5.184;2024-03-08T03:26:48;25.43;;;19.53;;
15202;SDS011;7702;51.046;5.184;2024-03-08T03:29:14;25.77;;;18.00;;
15202;SDS011;7702;51.046;5.184;2024-03-08T03:31:41;23.57;;;18.70;;
15202;SDS011;7702;51.046;5.184;2024-03-08T03:34:10;23.00;;;18.23;;
15202;SDS011;7702;51.046;5.184;2024-03-08T03:36:37;23.27;;;18.80;;
15202;SDS011;7702;51.046;5.184;2024-03-08T03:39:07;28.13;;;18.90;;
15202;SDS011;7702;51.046;5.184;2024-03-08T03:41:41;23.40;;;18.27;;
15202;SDS011;7702;51.046;5.184;2024-03-08T03:44:09;23.53;;;18.73;;
15202;SDS011;7702;51.046;5.184;2024-03-08T03:46:35;26.70;;;17.93;;
15202;SDS011;7702;51.046;5.184;2024-03-08T03:49:01;26.13;;;18.63;;
15202;SDS011;7702;51.046;5.184;2024-03-08T03:51:26;26.80;;;18.23;;
15202;SDS011;7702;51.046;5.184;2024-03-08T03:53:52;25.20;;;18.03;;
15202;SDS011;7702;51.046;5.184;2024-03-08T03:56:19;25.07;;;19.23;;
15202;SDS011;7702;51.046;5.184;2024-03-08T03:58:49;21.47;;;18.20;;
15202;SDS011;7702;51.046;5.184;2024-03-08T04:01:16;25.50;;;18.57;;
15202;SDS011;7702;51.046;5.184;2024-03-08T04:03:42;25.40;;;18.70;;
15202;SDS011;7702;51.046;5.184;2024-03-08T04:06:08;26.03;;;18.97;;
15202;SDS011;7702;51.046;5.184;2024-03-08T04:08:34;25.90;;;19.40;;
15202;SDS011;7702;51.046;5.184;2024-03-08T04:11:00;27.20;;;18.53;;
15202;SDS011;7702;51.046;5.184;2024-03-08T04:13:26;29.03;;;18.20;;
15202;SDS011;7702;51.046;5.184;2024-03-08T04:15:52;23.43;;;18.03;;
15202;SDS011;7702;51.046;5.184;2024-03-08T04:18:18;25.03;;;18.83;;
15202;SDS011;7702;51.046;5.184;2024-03-08T04:20:44;27.23;;;18.37;;
15202;SDS011;7702;51.046;5.184;2024-03-08T04:23:11;23.77;;;17.30;;
15202;SDS011;7702;51.046;5.184;2024-03-08T04:25:36;30.10;;;18.90;;
15202;SDS011;7702;51.046;5.184;2024-03-08T04:28:02;23.43;;;17.53;;
15202;SDS011;7702;51.046;5.184;2024-03-08T04:30:28;23.73;;;18.10;;
15202;SDS011;7702;51.046;5.184;2024-03-08T04:32:55;28.43;;;18.57;;
15202;SDS011;7702;51.046;5.184;2024-03-08T04:35:21;23.03;;;17.33;;
15202;SDS011;7702;51.046;5.184;2024-03-08T04:37:46;25.43;;;19.53;;
15202;SDS011;7702;51.046;5.184;2024-03-08T04:40:12;27.83;;;19.30;;
15202;SDS011;7702;51.046;5.184;2024-03-08T04:42:38;29.10;;;19.13;;
15202;SDS011;7702;51.046;5.184;2024-03-08T04:45:05;25.97;;;18.67;;
15202;SDS011;7702;51.046;5.184;2024-03-08T04:47:33;25.87;;;19.33;;
15202;SDS011;7702;51.046;5.184;2024-03-08T04:49:58;24.47;;;18.17;;
15202;SDS011;7702;51.046;5.184;2024-03-08T04:52:24;29.87;;;19.33;;
15202;SDS011;7702;51.046;5.184;2024-03-08T04:54:51;24.00;;;18.07;;
15202;SDS011;7702;51.046;5.184;2024-03-08T04:57:16;26.80;;;18.97;;
15202;SDS011;7702;51.046;5.184;2024-03-08T04:59:45;26.33;;;18.70;;
15202;SDS011;7702;51.046;5.184;2024-03-08T05:02:11;26.30;;;19.13;;
15202;SDS011;7702;51.046;5.184;2024-03-08T05:04:37;24.00;;;18.53;;
15202;SDS011;7702;51.046;5.184;2024-03-08T05:07:02;25.50;;;18.23;;
15202;SDS011;7702;51.046;5.184;2024-03-08T05:09:29;28.83;;;18.80;;
15202;SDS011;7702;51.046;5.184;2024-03-08T05:11:56;28.63;;;18.77;;
15202;SDS011;7702;51.046;5.184;2024-03-08T05:14:24;24.83;;;18.73;;
15202;SDS011;7702;51.046;5.184;2024-03-08T05:16:50;29.93;;;18.87;;
15202;SDS011;7702;51.046;5.184;2024-03-08T05:19:16;25.80;;;17.77;;
15202;SDS011;7702;51.046;5.184;2024-03-08T05:21:46;28.63;;;18.90;;
15202;SDS011;7702;51.046;5.184;2024-03-08T05:24:12;25.57;;;18.37;;
15202;SDS011;7702;51.046;5.184;2024-03-08T05:26:39;23.33;;;17.57;;
15202;SDS011;7702;51.046;5.184;2024-03-08T05:29:05;28.17;;;17.83;;
15202;SDS011;7702;51.046;5.184;2024-03-08T05:31:35;24.97;;;17.97;;
15202;SDS011;7702;51.046;5.184;2024-03-08T05:34:15;27.33;;;18.57;;
15202;SDS011;7702;51.046;5.184;2024-03-08T05:36:41;25.80;;;18.03;;
15202;SDS011;7702;51.046;5.184;2024-03-08T05:39:11;24.50;;;18.10;;
15202;SDS011;7702;51.046;5.184;2024-03-08T05:41:38;26.03;;;18.33;;
15202;SDS011;7702;51.046;5.184;2024-03-08T05:44:05;26.43;;;18.90;;
15202;SDS011;7702;51.046;5.184;2024-03-08T05:46:31;27.87;;;18.37;;
15202;SDS011;7702;51.046;5.184;2024-03-08T05:48:57;29.23;;;19.23;;
15202;SDS011;7702;51.046;5.184;2024-03-08T05:51:26;26.60;;;17.80;;
15202;SDS011;7702;51.046;5.184;2024-03-08T05:53:52;26.97;;;18.13;;
15202;SDS011;7702;51.046;5.184;2024-03-08T05:56:21;26.03;;;18.77;;
15202;SDS011;7702;51.046;5.184;2024-03-08T05:58:50;26.00;;;18.33;;
15202;SDS011;7702;51.046;5.184;2024-03-08T06:01:16;27.07;;;18.47;;
15202;SDS011;7702;51.046;5.184;2024-03-08T06:03:41;28.53;;;17.77;;
15202;SDS011;7702;51.046;5.184;2024-03-08T06:06:13;25.73;;;18.17;;
15202;SDS011;7702;51.046;5.184;2024-03-08T06:08:40;25.13;;;17.87;;
15202;SDS011;7702;51.046;5.184;2024-03-08T06:11:08;27.90;;;18.83;;
15202;SDS011;7702;51.046;5.184;2024-03-08T06:13:34;29.13;;;19.50;;
15202;SDS011;7702;51.046;5.184;2024-03-08T06:16:00;25.33;;;17.10;;
15202;SDS011;7702;51.046;5.184;2024-03-08T06:18:29;22.87;;;17.33;;
15202;SDS011;7702;51.046;5.184;2024-03-08T06:20:55;27.37;;;18.83;;
15202;SDS011;7702;51.046;5.184;2024-03-08T06:23:21;27.33;;;17.27;;
15202;SDS011;7702;51.046;5.184;2024-03-08T06:25:47;24.77;;;17.43;;
15202;SDS011;7702;51.046;5.184;2024-03-08T06:28:13;25.87;;;17.63;;
15202;SDS011;7702;51.046;5.184;2024-03-08T06:30:39;27.80;;;18.80;;
15202;SDS011;7702;51.046;5.184;2024-03-08T06:33:05;27.40;;;18.63;;
15202;SDS011;7702;51.046;5.184;2024-03-08T06:35:32;27.23;;;18.60;;
15202;SDS011;7702;51.046;5.184;2024-03-08T06:38:01;26.70;;;18.30;;
15202;SDS011;7702;51.046;5.184;2024-03-08T06:40:26;26.50;;;18.20;;
15202;SDS011;7702;51.046;5.184;2024-03-08T06:42:52;27.53;;;18.93;;
15202;SDS011;7702;51.046;5.184;2024-03-08T06:45:18;28.03;;;17.87;;
15202;SDS011;7702;51.046;5.184;2024-03-08T06:47:46;25.03;;;17.20;;
15202;SDS011;7702;51.046;5.184;2024-03-08T06:50:13;28.23;;;18.00;;
15202;SDS011;7702;51.046;5.184;2024-03-08T06:52:40;25.60;;;17.07;;
15202;SDS011;7702;51.046;5.184;2024-03-08T06:55:07;26.27;;;17.67;;
15202;SDS011;7702;51.046;5.184;2024-03-08T06:57:37;27.20;;;18.57;;
15202;SDS011;7702;51.046;5.184;2024-03-08T07:00:09;24.67;;;17.80;;
15202;SDS011;7702;51.046;5.184;2024-03-08T07:02:37;24.97;;;17.63;;
15202;SDS011;7702;51.046;5.184;2024-03-08T07:05:04;27.10;;;18.23;;
15202;SDS011;7702;51.046;5.184;2024-03-08T07:07:31;29.47;;;18.43;;
15202;SDS011;7702;51.046;5.184;2024-03-08T07:09:58;28.83;;;17.93;;
15202;SDS011;7702;51.046;5.184;2024-03-08T07:12:24;29.10;;;18.83;;
15202;SDS011;7702;51.046;5.184;2024-03-08T07:14:51;28.67;;;17.80;;
15202;SDS011;7702;51.046;5.184;2024-03-08T07:17:17;24.00;;;17.47;;
15202;SDS011;7702;51.046;5.184;2024-03-08T07:19:42;27.60;;;17.47;;
15202;SDS011;7702;51.046;5.184;2024-03-08T07:22:08;28.00;;;17.80;;
15202;SDS011;7702;51.046;5.184;2024-03-08T07:24:37;27.63;;;18.17;;
15202;SDS011;7702;51.046;5.184;2024-03-08T07:27:25;26.23;;;17.13;;
15202;SDS011;7702;51.046;5.184;2024-03-08T07:29:51;25.27;;;17.57;;
15202;SDS011;7702;51.046;5.184;2024-03-08T07:32:17;26.70;;;17.90;;
15202;SDS011;7702;51.046;5.184;2024-03-08T07:34:50;25.17;;;17.27;;
15202;SDS011;7702;51.046;5.184;2024-03-08T07:37:19;26.53;;;17.27;;
15202;SDS011;7702;51.046;5.184;2024-03-08T07:39:45;25.17;;;17.60;;
15202;SDS011;7702;51.046;5.184;2024-03-08T07:42:11;25.13;;;17.77;;
15202;SDS011;7702;51.046;5.184;2024-03-08T07:44:37;25.33;;;17.80;;
15202;SDS011;7702;51.046;5.184;2024-03-08T07:47:04;26.23;;;18.40;;
15202;SDS011;7702;51.046;5.184;2024-03-08T07:49:29;25.90;;;17.83;;
15202;SDS011;7702;51.046;5.184;2024-03-08T07:51:58;23.20;;;16.90;;
15202;SDS011;7702;51.046;5.184;2024-03-08T07:54:24;26.03;;;17.17;;
15202;SDS011;7702;51.046;5.184;2024-03-08T07:56:51;23.77;;;16.27;;
15202;SDS011;7702;51.046;5.184;2024-03-08T07:59:17;22.87;;;16.43;;
15202;SDS011;7702;51.046;5.184;2024-03-08T08:01:43;23.70;;;16.53;;
15202;SDS011;7702;51.046;5.184;2024-03-08T08:04:09;24.53;;;16.87;;
15202;SDS011;7702;51.046;5.184;2024-03-08T08:06:38;23.00;;;16.90;;
15202;SDS011;7702;51.046;5.184;2024-03-08T08:09:07;26.10;;;17.63;;
15202;SDS011;7702;51.046;5.184;2024-03-08T08:11:53;24.27;;;16.90;;
15202;SDS011;7702;51.046;5.184;2024-03-08T08:14:19;24.60;;;17.33;;
15202;SDS011;7702;51.046;5.184;2024-03-08T08:16:46;22.40;;;16.87;;
15202;SDS011;7702;51.046;5.184;2024-03-08T08:19:13;24.67;;;16.60;;
15202;SDS011;7702;51.046;5.184;2024-03-08T08:21:42;24.80;;;17.03;;
15202;SDS011;7702;51.046;5.184;2024-03-08T08:24:08;22.90;;;15.70;;
15202;SDS011;7702;51.046;5.184;2024-03-08T08:26:34;24.47;;;16.63;;
15202;SDS011;7702;51.046;5.184;2024-03-08T08:29:01;22.23;;;15.90;;
15202;SDS011;7702;51.046;5.184;2024-03-08T08:31:26;22.70;;;17.03;;
15202;SDS011;7702;51.046;5.184;2024-03-08T08:33:52;22.40;;;16.60;;
15202;SDS011;7702;51.046;5.184;2024-03-08T08:36:23;22.23;;;15.93;;
15202;SDS011;7702;51.046;5.184;2024-03-08T08:38:54;22.70;;;15.87;;
15202;SDS011;7702;51.046;5.184;2024-03-08T08:41:21;22.10;;;16.87;;
15202;SDS011;7702;51.046;5.184;2024-03-08T08:43:47;20.53;;;14.73;;
15202;SDS011;7702;51.046;5.184;2024-03-08T08:46:17;23.43;;;15.73;;
15202;SDS011;7702;51.046;5.184;2024-03-08T08:48:43;22.50;;;15.63;;
15202;SDS011;7702;51.046;5.184;2024-03-08T08:51:10;20.87;;;15.70;;
15202;SDS011;7702;51.046;5.184;2024-03-08T08:53:40;19.93;;;15.73;;
15202;SDS011;7702;51.046;5.184;2024-03-08T08:56:08;19.83;;;15.17;;
15202;SDS011;7702;51.046;5.184;2024-03-08T08:58:37;21.33;;;16.07;;
15202;SDS011;7702;51.046;5.184;2024-03-08T09:01:08;19.87;;;14.97;;
15202;SDS011;7702;51.046;5.184;2024-03-08T09:03:37;20.40;;;15.83;;
15202;SDS011;7702;51.046;5.184;2024-03-08T09:06:05;19.37;;;15.83;;
15202;SDS011;7702;51.046;5.184;2024-03-08T09:08:35;24.27;;;15.43;;
15202;SDS011;7702;51.046;5.184;2024-03-08T09:11:04;21.40;;;15.33;;
15202;SDS011;7702;51.046;5.184;2024-03-08T09:13:30;20.67;;;15.03;;
15202;SDS011;7702;51.046;5.184;2024-03-08T09:15:56;19.63;;;15.63;;
15202;SDS011;7702;51.046;5.184;2024-03-08T09:18:22;18.07;;;14.03;;
15202;SDS011;7702;51.046;5.184;2024-03-08T09:20:49;19.17;;;14.83;;
15202;SDS011;7702;51.046;5.184;2024-03-08T09:23:15;21.23;;;14.13;;
15202;SDS011;7702;51.046;5.184;2024-03-08T09:25:42;19.10;;;14.30;;
15202;SDS011;7702;51.046;5.184;2024-03-08T09:28:08;19.47;;;15.27;;
15202;SDS011;7702;51.046;5.184;2024-03-08T09:30:36;19.33;;;14.70;;
15202;SDS011;7702;51.046;5.184;2024-03-08T09:33:03;16.97;;;14.60;;
15202;SDS011;7702;51.046;5.184;2024-03-08T09:35:29;20.23;;;15.13;;
15202;SDS011;7702;51.046;5.184;2024-03-08T09:37:55;20.90;;;14.43;;
15202;SDS011;7702;51.046;5.184;2024-03-08T09:40:21;19.10;;;15.00;;
15202;SDS011;7702;51.046;5.184;2024-03-08T09:42:49;20.00;;;14.47;;
15202;SDS011;7702;51.046;5.184;2024-03-08T09:45:15;19.00;;;15.00;;
15202;SDS011;7702;51.046;5.184;2024-03-08T09:47:42;17.40;;;13.30;;
15202;SDS011;7702;51.046;5.184;2024-03-08T09:50:09;17.83;;;13.80;;
15202;SDS011;7702;51.046;5.184;2024-03-08T09:52:38;18.57;;;14.37;;
15202;SDS011;7702;51.046;5.184;2024-03-08T09:55:05;19.43;;;15.03;;
15202;SDS011;7702;51.046;5.184;2024-03-08T09:57:34;18.67;;;14.00;;
15202;SDS011;7702;51.046;5.184;2024-03-08T10:00:02;18.33;;;14.40;;
15202;SDS011;7702;51.046;5.184;2024-03-08T10:02:33;17.97;;;14.67;;
15202;SDS011;7702;51.046;5.184;2024-03-08T10:05:00;17.03;;;13.27;;
15202;SDS011;7702;51.046;5.184;2024-03-08T10:07:28;18.83;;;14.47;;
15202;SDS011;7702;51.046;5.184;2024-03-08T10:09:54;18.97;;;14.40;;
15202;SDS011;7702;51.046;5.184;2024-03-08T10:12:20;17.20;;;14.70;;
15202;SDS011;7702;51.046;5.184;2024-03-08T10:14:46;15.87;;;13.60;;
15202;SDS011;7702;51.046;5.184;2024-03-08T10:17:12;16.07;;;13.10;;
15202;SDS011;7702;51.046;5.184;2024-03-08T10:19:37;19.87;;;14.90;;
15202;SDS011;7702;51.046;5.184;2024-03-08T10:22:04;16.67;;;13.10;;
15202;SDS011;7702;51.046;5.184;2024-03-08T10:24:31;16.40;;;12.73;;
15202;SDS011;7702;51.046;5.184;2024-03-08T10:27:01;17.90;;;13.60;;
15202;SDS011;7702;51.046;5.184;2024-03-08T10:29:30;17.13;;;14.13;;
15202;SDS011;7702;51.046;5.184;2024-03-08T10:31:58;16.43;;;13.20;;
15202;SDS011;7702;51.046;5.184;2024-03-08T10:34:24;19.23;;;14.70;;
15202;SDS011;7702;51.046;5.184;2024-03-08T10:36:50;17.17;;;13.10;;
15202;SDS011;7702;51.046;5.184;2024-03-08T10:39:23;17.73;;;14.30;;
15202;SDS011;7702;51.046;5.184;2024-03-08T10:41:56;16.13;;;13.83;;
15202;SDS011;7702;51.046;5.184;2024-03-08T10:47:03;17.00;;;13.80;;
15202;SDS011;7702;51.046;5.184;2024-03-08T10:49:38;19.07;;;14.60;;
15202;SDS011;7702;51.046;5.184;2024-03-08T10:52:09;19.57;;;14.40;;
15202;SDS011;7702;51.046;5.184;2024-03-08T10:54:38;17.60;;;13.90;;
15202;SDS011;7702;51.046;5.184;2024-03-08T10:57:05;17.30;;;14.27;;
15202;SDS011;7702;51.046;5.184;2024-03-08T10:59:33;24.80;;;14.57;;
15202;SDS011;7702;51.046;5.184;2024-03-08T11:02:00;15.10;;;13.50;;
15202;SDS011;7702;51.046;5.184;2024-03-08T11:04:26;17.97;;;13.83;;
15202;SDS011;7702;51.046;5.184;2024-03-08T11:06:54;16.70;;;13.57;;
15202;SDS011;7702;51.046;5.184;2024-03-08T11:09:42;18.23;;;14.33;;
15202;SDS011;7702;51.046;5.184;2024-03-08T11:14:54;16.57;;;13.57;;
15202;SDS011;7702;51.046;5.184;2024-03-08T11:17:25;18.10;;;14.43;;
15202;SDS011;7702;51.046;5.184;2024-03-08T11:20:14;17.93;;;14.57;;
15202;SDS011;7702;51.046;5.184;2024-03-08T11:23:03;16.63;;;13.13;;
15202;SDS011;7702;51.046;5.184;2024-03-08T11:28:15;17.57;;;13.33;;
15202;SDS011;7702;51.046;5.184;2024-03-08T11:30:46;18.60;;;14.40;;
15202;SDS011;7702;51.046;5.184;2024-03-08T11:33:24;16.70;;;14.57;;
15202;SDS011;7702;51.046;5.184;2024-03-08T11:36:01;20.20;;;14.97;;
15202;SDS011;7702;51.046;5.184;2024-03-08T11:38:42;16.87;;;14.17;;
15202;SDS011;7702;51.046;5.184;2024-03-08T11:41:17;17.67;;;14.83;;
15202;SDS011;7702;51.046;5.184;2024-03-08T11:44:02;17.80;;;14.13;;
15202;SDS011;7702;51.046;5.184;2024-03-08T11:46:32;18.23;;;15.03;;
15202;SDS011;7702;51.046;5.184;2024-03-08T11:48:59;18.73;;;14.53;;
15202;SDS011;7702;51.046;5.184;2024-03-08T11:51:26;16.37;;;13.90;;
15202;SDS011;7702;51.046;5.184;2024-03-08T11:53:52;17.67;;;14.30;;
15202;SDS011;7702;51.046;5.184;2024-03-08T11:56:18;15.70;;;13.67;;
15202;SDS011;7702;51.046;5.184;2024-03-08T11:58:53;17.63;;;14.17;;
15202;SDS011;7702;51.046;5.184;2024-03-08T12:01:23;16.57;;;14.37;;
15202;SDS011;7702;51.046;5.184;2024-03-08T12:03:53;17.23;;;14.40;;
15202;SDS011;7702;51.046;5.184;2024-03-08T12:06:20;18.40;;;14.77;;
15202;SDS011;7702;51.046;5.184;2024-03-08T12:08:46;16.67;;;13.10;;
15202;SDS011;7702;51.046;5.184;2024-03-08T12:11:16;17.20;;;13.67;;
15202;SDS011;7702;51.046;5.184;2024-03-08T12:13:47;16.00;;;13.57;;
15202;SDS011;7702;51.046;5.184;2024-03-08T12:16:16;15.40;;;13.70;;
15202;SDS011;7702;51.046;5.184;2024-03-08T12:18:48;17.17;;;14.30;;
15202;SDS011;7702;51.046;5.184;2024-03-08T12:21:17;16.13;;;13.87;;
15202;SDS011;7702;51.046;5.184;2024-03-08T12:23:45;16.90;;;13.97;;
15202;SDS011;7702;51.046;5.184;2024-03-08T12:28:49;16.10;;;13.17;;
15202;SDS011;7702;51.046;5.184;2024-03-08T12:31:15;16.87;;;13.73;;
15202;SDS011;7702;51.046;5.184;2024-03-08T12:33:51;15.03;;;13.50;;
15202;SDS011;7702;51.046;5.184;2024-03-08T12:36:18;15.93;;;14.17;;
15202;SDS011;7702;51.046;5.184;2024-03-08T12:38:48;15.33;;;13.73;;
15202;SDS011;7702;51.046;5.184;2024-03-08T12:41:17;19.87;;;13.53;;
15202;SDS011;7702;51.046;5.184;2024-03-08T12:43:44;16.03;;;13.30;;
15202;SDS011;7702;51.046;5.184;2024-03-08T12:46:14;14.63;;;12.93;;
15202;SDS011;7702;51.046;5.184;2024-03-08T12:48:47;20.77;;;13.73;;
15202;SDS011;7702;51.046;5.184;2024-03-08T12:51:13;16.47;;;13.10;;
15202;SDS011;7702;51.046;5.184;2024-03-08T12:53:40;14.13;;;12.63;;
15202;SDS011;7702;51.046;5.184;2024-03-08T12:56:09;15.77;;;13.70;;
15202;SDS011;7702;51.046;5.184;2024-03-08T12:58:35;18.40;;;13.90;;
15202;SDS011;7702;51.046;5.184;2024-03-08T13:01:04;16.57;;;13.13;;
15202;SDS011;7702;51.046;5.184;2024-03-08T13:03:32;15.73;;;13.03;;
15202;SDS011;7702;51.046;5.184;2024-03-08T13:06:05;18.03;;;14.47;;
15202;SDS011;7702;51.046;5.184;2024-03-08T13:08:34;16.23;;;13.10;;
15202;SDS011;7702;51.046;5.184;2024-03-08T13:11:02;16.70;;;12.87;;
15202;SDS011;7702;51.046;5.184;2024-03-08T13:13:28;17.57;;;14.10;;
15202;SDS011;7702;51.046;5.184;2024-03-08T13:15:54;16.43;;;13.17;;
15202;SDS011;7702;51.046;5.184;2024-03-08T13:18:21;16.93;;;12.93;;
15202;SDS011;7702;51.046;5.184;2024-03-08T13:20:48;15.53;;;12.90;;
15202;SDS011;7702;51.046;5.184;2024-03-08T13:23:17;16.87;;;13.90;;
15202;SDS011;7702;51.046;5.184;2024-03-08T13:25:43;15.50;;;13.63;;
15202;SDS011;7702;51.046;5.184;2024-03-08T13:28:09;14.83;;;12.23;;
15202;SDS011;7702;51.046;5.184;2024-03-08T13:30:35;14.33;;;12.60;;
15202;SDS011;7702;51.046;5.184;2024-03-08T13:33:01;14.57;;;12.50;;
15202;SDS011;7702;51.046;5.184;2024-03-08T13:35:29;18.87;;;13.80;;
15202;SDS011;7702;51.046;5.184;2024-03-08T13:37:56;16.97;;;13.17;;
15202;SDS011;7702;51.046;5.184;2024-03-08T13:40:21;16.97;;;13.27;;
15202;SDS011;7702;51.046;5.184;2024-03-08T13:42:48;15.97;;;13.23;;
15202;SDS011;7702;51.046;5.184;2024-03-08T13:45:14;20.20;;;12.63;;
15202;SDS011;7702;51.046;5.184;2024-03-08T13:47:47;15.07;;;13.27;;
15202;SDS011;7702;51.046;5.184;2024-03-08T13:50:14;14.77;;;13.27;;
15202;SDS011;7702;51.046;5.184;2024-03-08T13:52:46;14.00;;;12.50;;
15202;SDS011;7702;51.046;5.184;2024-03-08T13:55:14;15.53;;;13.07;;
15202;SDS011;7702;51.046;5.184;2024-03-08T13:57:40;15.90;;;13.63;;
15202;SDS011;7702;51.046;5.184;2024-03-08T14:00:06;15.80;;;13.23;;
15202;SDS011;7702;51.046;5.184;2024-03-08T14:02:33;15.20;;;12.73;;
15202;SDS011;7702;51.046;5.184;2024-03-08T14:04:59;14.73;;;12.63;;
15202;SDS011;7702;51.046;5.184;2024-03-08T14:07:26;16.70;;;12.93;;
15202;SDS011;7702;51.046;5.184;2024-03-08T14:09:54;14.13;;;12.60;;
15202;SDS011;7702;51.046;5.184;2024-03-08T14:12:19;15.97;;;12.53;;
15202;SDS011;7702;51.046;5.184;2024-03-08T14:14:45;14.87;;;13.23;;
15202;SDS011;7702;51.046;5.184;2024-03-08T14:17:11;15.33;;;12.80;;
15202;SDS011;7702;51.046;5.184;2024-03-08T14:19:42;14.57;;;12.87;;
15202;SDS011;7702;51.046;5.184;2024-03-08T14:22:08;16.50;;;12.77;;
15202;SDS011;7702;51.046;5.184;2024-03-08T14:24:38;14.47;;;12.40;;
15202;SDS011;7702;51.046;5.184;2024-03-08T14:27:04;15.60;;;12.90;;
15202;SDS011;7702;51.046;5.184;2024-03-08T14:29:33;18.87;;;12.50;;
15202;SDS011;7702;51.046;5.184;2024-03-08T14:31:59;13.73;;;11.90;;
15202;SDS011;7702;51.046;5.184;2024-03-08T14:34:26;15.87;;;12.80;;
15202;SDS011;7702;51.046;5.184;2024-03-08T14:36:54;15.97;;;12.10;;
15202;SDS011;7702;51.046;5.184;2024-03-08T14:39:20;13.77;;;12.27;;
15202;SDS011;7702;51.046;5.184;2024-03-08T14:41:49;15.73;;;12.17;;
15202;SDS011;7702;51.046;5.184;2024-03-08T14:44:18;14.40;;;11.50;;
15202;SDS011;7702;51.046;5.184;2024-03-08T14:46:45;14.87;;;12.60;;
15202;SDS011;7702;51.046;5.184;2024-03-08T14:49:11;15.83;;;11.83;;